• Join FlightAware (Why Join?)
  • Login
  • US Flag 
05:02AM EDT


 

Airport Tracker/Info


-or-


 

Live Flight TrackerFlight Track Log ✈ EJA831 ✈ 24-Apr-2013 ✈ KACY - KAPF

Flight Track Log - Related Links

Times and Time Zones

All times are in EDT time to prevent confusion due to time zone crossing. See the EJA831 flight status page for this flight to view local times or setup timezone preferences in your user account.

Time Position Orientation Groundspeed Altitude Reporting Facility
EDT Latitude Longitude Course Direction KTS MPH feet Rate Location/Type
10:05AM 39.4583 -74.7206 218° Southwest 177 204 5,600  Level Washington Center
10:06AM 39.3939 -74.7697 211° Southwest 228 262 9,200 3,360 Climbing Washington Center
10:07AM 39.3233 -74.8242 211° Southwest 269 310 12,400 2,400 Climbing Washington Center
10:08AM 39.2656 -74.9053 227° Southwest 290 334 14,000 1,740 Climbing Washington Center
10:09AM 39.1187 -75.0286 203° Southwest  Level FlightAware Approximate
10:09AM 39.2203 -75.0050 240° Southwest 307 353 15,900  Level Washington Center
10:10AM 39.0253 -75.0747 218° Southwest  Level FlightAware Approximate
10:10AM 39.1331 -75.0592 206° Southwest 324 373 17,000  Level Washington Center
10:11AM 39.0414 -75.1106 204° Southwest 339 390 17,000 480 Level Washington Center
10:12AM 38.9542 -75.1592 203° Southwest 352 405 18,000 1,920 Climbing Washington Center
10:13AM 38.8625 -75.2158 206° Southwest 357 411 20,900 2,700 Climbing Washington Center
10:14AM 38.7772 -75.2667 205° Southwest 357 411 23,500 2,340 Climbing Washington Center
10:15AM 38.6856 -75.3125 201° Southwest 357 411 25,600 1,980 Climbing Washington Center
10:16AM 38.5942 -75.3686 206° Southwest 357 411 27,500 1,800 Climbing Washington Center
10:17AM 38.5025 -75.4244 205° Southwest 357 411 29,300 1,500 Climbing Washington Center
10:18AM 38.4025 -75.4778 203° Southwest 367 422 30,500 1,320 Climbing Washington Center
10:19AM 38.3086 -75.5467 210° Southwest 381 438 32,000 4,740 Climbing Washington Center
10:20AM 38.2211 -75.6261 216° Southwest 393 452 40,000 960 Climbing Washington Center
10:21AM 38.1333 -75.7078 216° Southwest 398 458 34,000 -1,920 Descending Washington Center
10:22AM 38.0436 -75.7894 216° Southwest 404 465 36,200 2,400 Climbing Washington Center
10:23AM 37.9664 -75.8631 217° Southwest 387 445 38,800 1,740 Climbing Washington Center
10:24AM 37.8911 -75.9339 217° Southwest 359 413 39,700 600 Climbing Washington Center
10:25AM 37.8117 -76.0072 216° Southwest 354 407 40,000 120 Climbing Washington Center
10:26AM 37.7278 -76.0933 219° Southwest 367 422 40,000  Level Washington Center
10:27AM 37.6378 -76.1714 214° Southwest 387 445 40,000  Level Washington Center
10:28AM 37.5456 -76.2572 216° Southwest 402 463 40,000  Level Washington Center
10:29AM 37.4533 -76.3400 215° Southwest 407 468 40,000  Level Washington Center
10:30AM 37.3611 -76.4253 216° Southwest 412 474 40,000  Level Washington Center
10:31AM 37.2667 -76.5131 216° Southwest 417 480 40,000  Level Washington Center
10:32AM 37.1719 -76.5928 214° Southwest 417 480 40,000  Level Washington Center
10:33AM 37.0836 -76.6750 217° Southwest 412 474 40,000  Level Washington Center
10:34AM 36.9953 -76.7569 217° Southwest 412 474 40,000  Level Washington Center
10:35AM 36.8989 -76.8178 207° Southwest 406 467 40,000  Level Washington Center
10:36AM 36.7961 -76.8681 201° Southwest 400 460 40,000  Level Washington Center
10:37AM 36.7014 -76.9286 207° Southwest 400 460 40,000  Level Washington Center
10:38AM 36.6192 -77.0100 218° Southwest 394 453 40,000  Level Washington Center
10:39AM 36.5347 -77.0939 219° Southwest 388 447 40,000  Level Washington Center
10:40AM 36.4522 -77.1750 218° Southwest 383 441 40,000  Level Washington Center
10:41AM 36.3678 -77.2608 219° Southwest 388 447 40,000  Level Washington Center
10:42AM 36.2853 -77.3389 217° Southwest 388 447 40,000  Level Washington Center
10:43AM 36.2028 -77.4194 218° Southwest 383 441 40,000  Level Washington Center
10:44AM 36.1136 -77.5128 220° Southwest 383 441 40,000  Level Washington Center
10:45AM 36.0308 -77.5928 218° Southwest 383 441 40,000  Level Washington Center
10:46AM 35.9461 -77.6753 218° Southwest 383 441 40,000  Level Washington Center
10:47AM 35.8611 -77.7553 217° Southwest 388 447 40,000  Level Washington Center
10:48AM 35.7783 -77.8347 218° Southwest 388 447 40,000  Level Washington Center
10:49AM 35.6953 -77.9144 218° Southwest 388 447 40,000  Level Washington Center
10:50AM 35.6144 -77.9936 219° Southwest 383 441 40,000  Level Washington Center
10:51AM 35.5317 -78.0728 218° Southwest 383 441 40,000  Level Washington Center
10:52AM 35.4486 -78.1469 216° Southwest 383 441 40,000  Level Washington Center
10:53AM 35.3825 -78.2108 218° Southwest 383 441 40,000  Level Washington Center
10:54AM 35.2931 -78.2997 219° Southwest 383 441 40,000  Level Washington Center
10:55AM 35.2119 -78.3758 217° Southwest 377 434 40,000  Level Washington Center
10:56AM 35.1286 -78.4542 218° Southwest 377 434 40,000  Level Washington Center
10:57AM 35.0517 -78.5300 219° Southwest 377 434 40,000  Level Washington Center
10:59AM 34.8844 -78.6867 218° Southwest 357 411 40,000  Level Jacksonville Center
11:00AM 34.8056 -78.7614 218° Southwest 362 417 40,000  Level Jacksonville Center
11:01AM 34.7225 -78.8386 217° Southwest 367 422 40,000  Level Jacksonville Center
11:02AM 34.6417 -78.9156 218° Southwest 367 422 40,000  Level Jacksonville Center
11:03AM 34.5583 -78.9900 216° Southwest 372 428 40,000  Level Jacksonville Center
11:04AM 34.4897 -79.0636 221° Southwest 372 428 40,000  Level Jacksonville Center
11:05AM 34.4064 -79.1378 216° Southwest 378 435 40,000  Level Jacksonville Center
11:06AM 34.3208 -79.2094 215° Southwest 378 435 40,000  Level Jacksonville Center
11:07AM 34.2353 -79.2808 215° Southwest 378 435 40,000  Level Jacksonville Center
11:08AM 34.1475 -79.3497 213° Southwest 378 435 40,000  Level Jacksonville Center
11:09AM 34.0619 -79.4183 214° Southwest 378 435 40,000  Level Jacksonville Center
11:10AM 33.9781 -79.4842 213° Southwest 372 428 40,000  Level Jacksonville Center
11:11AM 33.8903 -79.5553 214° Southwest 378 435 40,000  Level Jacksonville Center
11:12AM 33.8067 -79.6258 215° Southwest 378 435 40,000  Level Jacksonville Center
11:13AM 33.7186 -79.6942 213° Southwest 378 435 40,000  Level Jacksonville Center
11:14AM 33.6308 -79.7644 214° Southwest 383 441 40,000  Level Jacksonville Center
11:15AM 33.5428 -79.8375 215° Southwest 383 441 40,000  Level Jacksonville Center
11:16AM 33.4547 -79.9078 214° Southwest 383 441 40,000  Level Jacksonville Center
11:17AM 33.3686 -79.9753 213° Southwest 383 441 40,000  Level Jacksonville Center
11:18AM 33.2825 -80.0450 214° Southwest 383 441 40,000  Level Jacksonville Center
11:19AM 33.1922 -80.1150 213° Southwest 383 441 40,000  Level Jacksonville Center
11:20AM 33.1061 -80.1822 213° Southwest 385 443 40,000  Level Jacksonville Center
11:21AM 33.0136 -80.2544 213° Southwest 385 443 40,000  Level Jacksonville Center
11:22AM 32.9153 -80.3339 214° Southwest 399 459 40,000  Level Jacksonville Center
11:23AM 32.8289 -80.4031 214° Southwest 393 452 40,000  Level Jacksonville Center
11:24AM 32.7403 -80.4697 212° Southwest 393 452 40,000  Level Jacksonville Center
11:25AM 32.6542 -80.5411 215° Southwest 384 442 40,000  Level Jacksonville Center
11:26AM 32.5656 -80.6075 212° Southwest 379 436 40,000  Level Jacksonville Center
11:27AM 32.4769 -80.6764 213° Southwest 384 442 40,000  Level Jacksonville Center
11:28AM 32.3925 -80.7447 214° Southwest 379 436 40,000  Level Jacksonville Center
11:29AM 32.3039 -80.8133 213° Southwest 379 436 40,000  Level Jacksonville Center
11:30AM 32.2256 -80.8739 213° Southwest 379 436 40,000  Level Jacksonville Center
11:31AM 32.1267 -80.9472 212° Southwest 385 443 40,000  Level Jacksonville Center
11:32AM 32.0378 -81.0128 212° Southwest 385 443 40,000  Level Jacksonville Center
11:33AM 31.9469 -81.0856 214° Southwest 387 445 40,000  Level Jacksonville Center
11:34AM 31.8603 -81.1508 213° Southwest 387 445 40,000  Level Jacksonville Center
11:35AM 31.7692 -81.2186 212° Southwest 387 445 40,000  Level Jacksonville Center
11:36AM 31.6908 -81.2811 214° Southwest 382 440 40,000  Level Jacksonville Center
11:37AM 31.5936 -81.3558 213° Southwest 389 448 40,000  Level Jacksonville Center
11:38AM 31.5128 -81.4183 213° Southwest 384 442 40,000  Level Jacksonville Center
11:39AM 31.4156 -81.4903 212° Southwest 390 449 40,000  Level Jacksonville Center
11:40AM 31.3347 -81.5547 214° Southwest 390 449 40,000  Level Jacksonville Center
11:41AM 31.2436 -81.6217 212° Southwest 390 449 40,000  Level Jacksonville Center
11:42AM 31.1544 -81.6933 215° Southwest 395 455 40,000  Level Jacksonville Center
11:43AM 31.0781 -81.7767 223° Southwest 390 449 40,000  Level Jacksonville Center
11:44AM 31.0036 -81.8575 223° Southwest 384 442 40,000  Level Jacksonville Center
11:45AM 30.9122 -81.9217 211° Southwest 377 434 40,000  Level Jacksonville Center
11:46AM 30.8144 -81.9783 206° Southwest 383 441 40,000  Level Jacksonville Center
11:47AM 30.7064 -82.0397 206° Southwest 393 452 40,000  Level Jacksonville Center
11:48AM 30.6086 -82.0889 203° Southwest 393 452 40,000  Level Jacksonville Center
11:49AM 30.4958 -82.1019 186° South 393 452 40,000  Level Jacksonville Center
11:50AM 30.3811 -82.1003 179° South 404 465 40,000  Level Jacksonville Center
11:51AM 30.2619 -82.0844 173° South 417 480 40,000  Level Jacksonville Center
11:52AM 30.1386 -82.0686 174° South 439 505 40,000  Level Jacksonville Center
11:53AM 30.0133 -82.0578 176° South 449 517 40,000  Level Jacksonville Center
11:54AM 29.8878 -82.0422 174° South 449 517 40,000  Level Jacksonville Center
11:55AM 29.7644 -82.0242 173° South 449 517 40,000 -600 Level Jacksonville Center
11:56AM 29.6372 -82.0083 174° South 454 522 38,900 -1,500 Descending Jacksonville Center
11:57AM 29.5139 -81.9928 174° South 454 522 37,100 -1,860 Descending Jacksonville Center
11:58AM 29.3928 -81.9772 174° South 448 516 35,200 -1,080 Descending Jacksonville Center
11:59AM 29.2694 -81.9522 170° South 448 516 35,000 -240 Descending Jacksonville Center
12:00PM 29.1564 -81.9272 169° South 448 516 34,800 -1,440 Descending Jacksonville Center
12:02PM 28.8847 -81.8742 170° South 455 524 30,500 -2,040 Descending Miami Center
12:03PM 28.7603 -81.8497 170° South 455 524 28,300 -2,160 Descending Miami Center
12:04PM 28.6342 -81.8250 170° South 462 532 26,200 -1,680 Descending Miami Center
12:05PM 28.5142 -81.7961 168° South 462 532 25,000 -600 Descending Miami Center
12:06PM 28.3964 -81.7625 166° South 454 522 25,000 -420 Level Miami Center
12:07PM 28.2742 -81.7314 167° South 449 517 24,200 -540 Descending Miami Center
12:08PM 28.1711 -81.6986 164° South 444 511 24,000 -840 Descending Miami Center
12:09PM 28.0300 -81.6761 172° South 439 505 22,600 -1,500 Descending Miami Center
12:10PM 27.9206 -81.7067 194° South 415 478 21,100 -1,320 Descending Miami Center
12:11PM 27.8383 -81.7292 194° South 404 465 20,000 -1,500 Descending Miami Center
12:12PM 27.7222 -81.7031 169° South 382 440 18,100 -2,040 Descending Miami Center
12:13PM 27.6086 -81.6678 165° South 388 447 16,000 -1,800 Descending Miami Center
12:14PM 27.5094 -81.6378 165° South 388 447 14,600 -1,380 Descending Miami Center
12:15PM 27.4125 -81.6081 165° South 376 433 13,300 -1,260 Descending Miami Center
12:16PM 27.3153 -81.5783 165° South 371 427 12,100 -1,200 Descending Miami Center
12:17PM 27.2203 -81.5489 165° South 371 427 11,000 -960 Descending Miami Center
12:18PM 27.1272 -81.5194 164° South 359 413 10,200 -540 Descending Miami Center
12:19PM 27.0383 -81.4925 165° South 344 396 10,000 -120 Descending Miami Center
12:20PM 26.9644 -81.4569 157° South 330 380 10,000  Level Miami Center
12:21PM 26.8781 -81.4164 157° South 330 380 10,000 -60 Level Miami Center
12:22PM 26.7869 -81.3847 163° South 324 373 9,900 -900 Descending Miami Center
12:23PM 26.7053 -81.3933 185° South 296 341 8,300 -960 Descending Miami Center
12:24PM 26.6342 -81.3975 183° South 289 333 8,000 -180 Descending Miami Center
12:25PM 26.5547 -81.4014 183° South 289 333 8,000  Level Miami Center
12:26PM 26.4728 -81.4214 192° South 294 338 8,000  Level Miami Center
12:27PM 26.3967 -81.4486 198° South 294 338 8,000  Level Miami Center
12:29PM 26.2558 -81.5551 241° Southwest  Level FlightAware Approximate
12:36PM 26.1500 -81.7667 246° West  Level FlightAware Approximate
12:37PM 26.1524 -81.7756 246° West  Level Estimated
12:38PM 26.1524 -81.7756 246° West  Level Estimated
12:39PM 26.1524 -81.7756 246° West  Level Estimated
12:40PM 26.1524 -81.7756 246° West  Level Estimated
12:41PM 26.1524 -81.7756 246° West  Level Estimated
12:42PM 26.1524 -81.7756 246° West  Level Estimated
12:43PM 26.1524 -81.7756 246° West  Level Estimated
12:44PM 26.1524 -81.7756 246° West  Level Estimated